createdAt,value
2023-04-13T00:01:26.124Z,31.67
2023-04-13T00:03:53.491Z,33.28
2023-04-13T00:06:22.913Z,29.63
2023-04-13T00:08:51.034Z,32.95
2023-04-13T00:11:18.253Z,32.15
2023-04-13T00:13:47.511Z,33.78
2023-04-13T00:16:16.544Z,31.83
2023-04-13T00:18:43.781Z,30.15
2023-04-13T00:21:10.995Z,36.80
2023-04-13T00:23:38.267Z,34.33
2023-04-13T00:26:05.887Z,29.13
2023-04-13T00:28:33.246Z,33.30
2023-04-13T00:31:00.911Z,30.48
2023-04-13T00:33:28.174Z,34.60
2023-04-13T00:35:55.335Z,36.28
2023-04-13T00:38:24.098Z,36.22
2023-04-13T00:40:55.789Z,34.35
2023-04-13T00:43:23.485Z,37.75
2023-04-13T00:45:51.061Z,34.08
2023-04-13T00:48:18.528Z,33.40
2023-04-13T00:50:47.671Z,38.70
2023-04-13T00:53:15.988Z,35.70
2023-04-13T00:55:44.464Z,36.00
2023-04-13T00:58:13.207Z,35.35
2023-04-13T01:00:43.694Z,39.38
2023-04-13T01:03:12.411Z,34.35
2023-04-13T01:06:24.414Z,35.05
2023-04-13T01:09:09.425Z,38.50
2023-04-13T01:11:51.447Z,36.05
2023-04-13T01:14:59.345Z,37.13
2023-04-13T01:17:34.949Z,37.20
2023-04-13T01:20:15.744Z,38.25
2023-04-13T01:23:13.988Z,40.25
2023-04-13T01:25:56.572Z,37.47
2023-04-13T01:28:27.787Z,44.33
2023-04-13T01:30:57.670Z,38.47
2023-04-13T01:33:25.474Z,36.42
2023-04-13T01:35:54.200Z,40.78
2023-04-13T01:38:25.467Z,34.58
2023-04-13T01:40:54.652Z,39.72
2023-04-13T01:43:23.582Z,43.42
2023-04-13T01:46:15.827Z,39.15
2023-04-13T01:49:19.543Z,36.30
2023-04-13T01:52:05.886Z,36.10
2023-04-13T01:54:36.925Z,40.03
2023-04-13T01:57:04.798Z,34.42
2023-04-13T01:59:34.835Z,41.55
2023-04-13T02:02:02.449Z,36.38
2023-04-13T02:04:32.239Z,36.65
2023-04-13T02:06:59.530Z,36.28
2023-04-13T02:09:32.082Z,36.05
2023-04-13T02:11:59.312Z,34.30
2023-04-13T02:14:27.216Z,34.90
2023-04-13T02:16:54.716Z,32.38
2023-04-13T02:19:21.918Z,36.67
2023-04-13T02:21:49.161Z,34.03
2023-04-13T02:24:18.677Z,32.40
2023-04-13T02:26:46.000Z,33.00
2023-04-13T02:29:13.154Z,37.50
2023-04-13T02:31:44.330Z,35.13
2023-04-13T02:34:11.554Z,38.85
2023-04-13T02:36:39.364Z,31.73
2023-04-13T02:39:09.216Z,36.72
2023-04-13T02:41:36.419Z,32.78
2023-04-13T02:44:03.630Z,34.45
2023-04-13T02:46:41.897Z,31.05
2023-04-13T02:49:14.651Z,33.50
2023-04-13T02:51:52.134Z,31.33
2023-04-13T02:54:26.026Z,37.00
2023-04-13T02:56:53.931Z,34.13
2023-04-13T02:59:21.262Z,35.35
2023-04-13T03:01:49.550Z,31.25
2023-04-13T03:04:18.954Z,33.08
2023-04-13T03:06:47.407Z,34.20
2023-04-13T03:11:48.540Z,31.42
2023-04-13T03:14:23.878Z,34.58
2023-04-13T03:17:03.772Z,37.00
2023-04-13T03:19:37.734Z,34.53
2023-04-13T03:22:05.876Z,32.88
2023-04-13T03:24:35.794Z,37.78
2023-04-13T03:27:06.939Z,36.38
2023-04-13T03:29:39.703Z,35.78
2023-04-13T03:32:09.308Z,30.42
2023-04-13T03:34:43.866Z,34.65
2023-04-13T03:37:12.656Z,32.25
2023-04-13T03:39:40.785Z,26.48
2023-04-13T03:42:11.561Z,32.85
2023-04-13T03:44:43.954Z,33.97
2023-04-13T03:47:11.417Z,34.20
2023-04-13T03:49:38.628Z,31.08
2023-04-13T03:52:06.078Z,29.27
2023-04-13T03:54:38.226Z,33.30
2023-04-13T03:57:05.495Z,32.22
2023-04-13T03:59:34.516Z,32.90
2023-04-13T04:02:03.389Z,37.53
2023-04-13T04:04:31.935Z,34.28
2023-04-13T04:06:59.371Z,30.67
2023-04-13T04:09:27.456Z,33.60
2023-04-13T04:11:56.559Z,33.05
2023-04-13T04:14:35.953Z,33.83
2023-04-13T04:17:11.728Z,30.92
2023-04-13T04:19:39.369Z,30.67
2023-04-13T04:22:07.329Z,32.58
2023-04-13T04:24:38.957Z,33.72
2023-04-13T04:27:06.174Z,35.85
2023-04-13T04:29:36.210Z,34.53
2023-04-13T04:32:15.394Z,35.13
2023-04-13T04:34:43.240Z,36.95
2023-04-13T04:37:20.753Z,32.78
2023-04-13T04:40:00.046Z,35.17
2023-04-13T04:44:56.371Z,31.85
2023-04-13T04:47:25.383Z,34.63
2023-04-13T04:50:17.694Z,31.15
2023-04-13T04:52:47.531Z,31.80
2023-04-13T04:55:19.498Z,34.47
2023-04-13T04:57:46.866Z,32.88
2023-04-13T05:00:17.148Z,29.85
2023-04-13T05:03:08.251Z,28.92
2023-04-13T05:05:39.077Z,31.63
2023-04-13T05:08:11.660Z,31.55
2023-04-13T05:10:47.904Z,34.40
2023-04-13T05:13:15.587Z,28.08
2023-04-13T05:15:49.857Z,28.00
2023-04-13T05:18:19.199Z,29.35
2023-04-13T05:20:47.224Z,29.20
2023-04-13T05:23:14.436Z,29.02
2023-04-13T05:25:49.105Z,31.58
2023-04-13T05:28:21.786Z,30.70
2023-04-13T05:30:49.673Z,26.40
2023-04-13T05:33:17.383Z,34.08
2023-04-13T05:35:47.241Z,30.98
2023-04-13T05:38:14.408Z,28.65
2023-04-13T05:40:41.925Z,31.75
2023-04-13T05:43:09.977Z,31.15
2023-04-13T05:45:44.033Z,29.23
2023-04-13T05:48:14.704Z,37.53
2023-04-13T05:50:44.059Z,30.95
2023-04-13T05:55:48.430Z,30.05
2023-04-13T05:58:20.017Z,32.45
2023-04-13T06:00:50.689Z,28.70
2023-04-13T06:03:27.480Z,33.75
2023-04-13T06:05:55.462Z,30.48
2023-04-13T06:08:22.709Z,29.83
2023-04-13T06:10:51.631Z,29.65
2023-04-13T06:13:19.497Z,30.58
2023-04-13T06:15:46.877Z,27.85
2023-04-13T06:18:14.035Z,28.13
2023-04-13T06:20:41.191Z,29.77
2023-04-13T06:23:09.345Z,31.40
2023-04-13T06:25:36.517Z,26.63
2023-04-13T06:28:04.697Z,29.05
2023-04-13T06:30:38.134Z,29.38
2023-04-13T06:33:11.162Z,31.80
2023-04-13T06:35:38.984Z,28.05
2023-04-13T06:38:07.085Z,30.55
2023-04-13T06:40:46.212Z,26.25
2023-04-13T06:43:26.440Z,28.67
2023-04-13T06:46:13.698Z,28.42
2023-04-13T06:48:41.638Z,30.67
2023-04-13T06:51:08.824Z,29.67
2023-04-13T06:53:37.146Z,27.00
2023-04-13T06:56:04.812Z,31.00
2023-04-13T06:58:32.478Z,30.15
2023-04-13T07:00:59.680Z,29.98
2023-04-13T07:03:31.882Z,29.40
2023-04-13T07:05:59.231Z,29.98
2023-04-13T07:08:27.100Z,32.85
2023-04-13T07:10:55.773Z,29.23
2023-04-13T07:13:31.089Z,31.77
2023-04-13T07:15:59.145Z,26.73
2023-04-13T07:18:26.535Z,29.08
2023-04-13T07:20:54.882Z,26.35
2023-04-13T07:23:27.397Z,27.33
2023-04-13T07:25:54.584Z,28.10
2023-04-13T07:28:25.986Z,25.17
2023-04-13T07:30:56.152Z,26.40
2023-04-13T07:33:23.878Z,31.27
2023-04-13T07:35:54.684Z,27.65
2023-04-13T07:38:25.244Z,26.88
2023-04-13T07:40:52.932Z,29.60
2023-04-13T07:43:24.456Z,25.70
2023-04-13T07:45:52.937Z,27.20
2023-04-13T07:48:20.324Z,30.15
2023-04-13T07:50:48.297Z,27.73
2023-04-13T07:53:20.510Z,25.77
2023-04-13T07:55:48.358Z,28.88
2023-04-13T07:58:15.795Z,28.95
2023-04-13T08:00:43.497Z,27.45
2023-04-13T08:03:10.907Z,29.10
2023-04-13T08:05:38.678Z,27.00
2023-04-13T08:08:06.150Z,25.17
2023-04-13T08:10:33.348Z,28.83
2023-04-13T08:13:04.514Z,27.30
2023-04-13T08:15:31.968Z,25.73
2023-04-13T08:18:00.455Z,27.75
2023-04-13T08:20:30.183Z,27.17
2023-04-13T08:22:58.328Z,27.98
2023-04-13T08:25:25.769Z,24.33
2023-04-13T08:27:53.108Z,26.45
2023-04-13T08:30:20.345Z,24.75
2023-04-13T08:32:58.797Z,25.63
2023-04-13T08:35:26.834Z,26.83
2023-04-13T08:37:54.293Z,25.88
2023-04-13T08:40:22.682Z,27.90
2023-04-13T08:42:54.605Z,30.40
2023-04-13T08:45:22.321Z,27.45
2023-04-13T08:47:50.070Z,26.35
2023-04-13T08:50:19.793Z,24.55
2023-04-13T08:52:51.051Z,24.23
2023-04-13T08:55:18.527Z,22.00
2023-04-13T08:57:57.272Z,23.60
2023-04-13T09:00:25.488Z,24.80
2023-04-13T09:03:05.615Z,23.75
2023-04-13T09:05:41.919Z,23.23
2023-04-13T09:08:13.650Z,22.63
2023-04-13T09:10:42.628Z,24.88
2023-04-13T09:13:10.063Z,24.85
2023-04-13T09:15:37.549Z,26.00
2023-04-13T09:18:22.677Z,26.58
2023-04-13T09:21:00.321Z,26.38
2023-04-13T09:23:27.740Z,26.95
2023-04-13T09:26:10.506Z,24.85
2023-04-13T09:28:49.725Z,33.22
2023-04-13T09:31:17.084Z,25.42
2023-04-13T09:33:52.389Z,25.92
2023-04-13T09:36:22.477Z,28.65
2023-04-13T09:38:56.022Z,24.05
2023-04-13T09:41:40.577Z,25.48
2023-04-13T09:44:24.287Z,26.45
2023-04-13T09:47:04.277Z,28.38
2023-04-13T09:49:40.854Z,26.17
2023-04-13T09:52:23.295Z,28.33
2023-04-13T09:54:58.591Z,26.88
2023-04-13T09:57:32.895Z,22.88
2023-04-13T10:00:14.237Z,22.15
2023-04-13T10:02:42.095Z,27.27
2023-04-13T10:05:12.385Z,28.60
2023-04-13T10:07:44.121Z,26.83
2023-04-13T10:10:12.846Z,25.60
2023-04-13T10:12:48.531Z,25.83
2023-04-13T10:15:56.768Z,24.27
2023-04-13T10:19:18.192Z,25.95
2023-04-13T10:21:48.942Z,23.00
2023-04-13T10:24:17.193Z,19.60
2023-04-13T10:26:45.162Z,19.33
2023-04-13T10:29:14.845Z,19.08
2023-04-13T10:31:48.787Z,17.90
2023-04-13T10:34:28.759Z,16.17
2023-04-13T10:36:58.517Z,16.98
2023-04-13T10:39:35.081Z,14.68
2023-04-13T10:42:10.667Z,16.67
2023-04-13T10:44:53.101Z,18.95
2023-04-13T10:47:22.293Z,13.80
2023-04-13T10:49:52.118Z,13.23
2023-04-13T10:52:19.380Z,17.15
2023-04-13T10:54:46.522Z,14.93
2023-04-13T10:57:14.949Z,12.07
2023-04-13T10:59:58.027Z,10.13
2023-04-13T11:02:34.042Z,9.32
2023-04-13T11:05:02.040Z,9.65
2023-04-13T11:07:29.700Z,7.88
2023-04-13T11:10:04.115Z,4.35
2023-04-13T11:12:31.737Z,5.22
2023-04-13T11:15:00.508Z,4.85
2023-04-13T11:17:28.005Z,6.47
2023-04-13T11:19:58.604Z,6.05
2023-04-13T11:22:28.674Z,7.00
2023-04-13T11:25:09.041Z,7.80
2023-04-13T11:27:37.861Z,4.43
2023-04-13T11:30:09.459Z,3.75
2023-04-13T11:32:43.428Z,3.65
2023-04-13T11:35:14.707Z,3.60
2023-04-13T11:37:50.860Z,3.10
2023-04-13T11:40:27.940Z,3.85
2023-04-13T11:42:58.605Z,3.60
2023-04-13T11:45:29.703Z,4.78
2023-04-13T11:47:58.302Z,4.35
2023-04-13T11:50:26.264Z,4.05
2023-04-13T11:52:58.402Z,4.13
2023-04-13T11:55:26.657Z,4.32
2023-04-13T11:57:54.833Z,4.03
2023-04-13T12:00:26.522Z,4.85
2023-04-13T12:05:34.254Z,3.55
2023-04-13T12:08:04.263Z,2.97
2023-04-13T12:10:43.515Z,3.15
2023-04-13T12:13:35.916Z,2.92
2023-04-13T12:16:11.243Z,2.97
2023-04-13T12:18:49.487Z,5.25
2023-04-13T12:21:20.404Z,2.30
2023-04-13T12:24:01.322Z,3.30
2023-04-13T12:29:11.493Z,1.95
2023-04-13T12:31:40.028Z,1.40
2023-04-13T12:34:08.196Z,0.90
2023-04-13T12:36:36.811Z,2.63
2023-04-13T12:39:04.853Z,1.77
2023-04-13T12:41:33.163Z,1.77
2023-04-13T12:44:00.432Z,1.33
2023-04-13T12:46:27.710Z,1.83
2023-04-13T12:48:54.983Z,2.33
2023-04-13T12:51:22.236Z,0.80
2023-04-13T12:53:49.480Z,2.08
2023-04-13T12:56:16.643Z,2.53
2023-04-13T12:58:44.272Z,1.00
2023-04-13T13:01:14.286Z,0.95
2023-04-13T13:03:41.861Z,0.47
2023-04-13T13:06:09.337Z,0.85
2023-04-13T13:08:39.477Z,0.60
2023-04-13T13:11:11.120Z,0.22
2023-04-13T13:13:38.396Z,1.83
2023-04-13T13:16:06.239Z,0.52
2023-04-13T13:18:47.003Z,0.30
2023-04-13T13:21:18.063Z,1.25
2023-04-13T13:23:46.563Z,0.65
2023-04-13T13:28:47.049Z,1.65
2023-04-13T13:31:15.309Z,1.02
2023-04-13T13:33:42.549Z,0.60
2023-04-13T13:36:09.712Z,2.63
2023-04-13T13:38:37.145Z,0.57
2023-04-13T13:41:09.985Z,0.52
2023-04-13T13:43:38.192Z,0.30
2023-04-13T13:46:06.585Z,1.73
2023-04-13T13:48:36.189Z,0.88
2023-04-13T13:51:27.556Z,0.63
2023-04-13T13:53:55.879Z,1.25
2023-04-13T13:56:23.198Z,1.25
2023-04-13T13:58:50.432Z,2.28
2023-04-13T14:01:17.964Z,1.38
2023-04-13T14:03:45.578Z,1.65
2023-04-13T14:06:12.971Z,1.73
2023-04-13T14:08:40.440Z,1.08
2023-04-13T14:11:07.605Z,1.52
2023-04-13T14:13:34.764Z,1.50
2023-04-13T14:16:02.182Z,3.20
2023-04-13T14:18:29.477Z,1.27
2023-04-13T14:21:00.277Z,1.33
2023-04-13T14:23:27.511Z,1.13
2023-04-13T14:25:54.775Z,2.05
2023-04-13T14:28:22.085Z,1.80
2023-04-13T14:30:49.400Z,0.45
2023-04-13T14:33:18.031Z,0.73
2023-04-13T14:35:45.537Z,0.77
2023-04-13T14:38:12.759Z,1.25
2023-04-13T14:40:40.079Z,1.58
2023-04-13T14:43:07.695Z,0.95
2023-04-13T14:45:34.942Z,1.80
2023-04-13T14:48:02.666Z,2.35
2023-04-13T14:50:30.100Z,2.25
2023-04-13T14:52:57.342Z,2.20
2023-04-13T14:55:24.555Z,1.05
2023-04-13T14:57:51.764Z,1.67
2023-04-13T15:00:26.070Z,2.45
2023-04-13T15:02:56.376Z,2.20
2023-04-13T15:05:24.725Z,1.52
2023-04-13T15:07:52.934Z,1.20
2023-04-13T15:10:21.429Z,2.13
2023-04-13T15:15:16.071Z,4.28
2023-04-13T15:17:43.334Z,2.20
2023-04-13T15:20:11.975Z,1.33
2023-04-13T15:22:39.320Z,1.70
2023-04-13T15:25:07.296Z,2.75
2023-04-13T15:27:34.667Z,2.05
2023-04-13T15:30:03.287Z,1.90
2023-04-13T15:32:34.247Z,2.10
2023-04-13T15:35:01.942Z,2.10
2023-04-13T15:37:29.154Z,4.07
2023-04-13T15:39:56.836Z,1.45
2023-04-13T15:42:25.846Z,2.25
2023-04-13T15:44:54.726Z,2.70
2023-04-13T15:47:22.868Z,2.50
2023-04-13T15:49:50.394Z,1.80
2023-04-13T15:52:17.867Z,2.72
2023-04-13T15:54:45.266Z,1.40
2023-04-13T15:57:12.518Z,1.83
2023-04-13T15:59:39.782Z,1.98
2023-04-13T16:02:07.977Z,1.27
2023-04-13T16:04:35.450Z,1.45
2023-04-13T16:07:12.641Z,1.70
2023-04-13T16:09:47.369Z,1.23
2023-04-13T16:12:14.686Z,1.38
2023-04-13T16:14:44.652Z,2.97
2023-04-13T16:17:16.840Z,1.15
2023-04-13T16:19:50.598Z,1.45
2023-04-13T16:22:17.879Z,1.70
2023-04-13T16:24:45.024Z,2.47
2023-04-13T16:27:12.266Z,1.08
2023-04-13T16:29:41.603Z,1.67
2023-04-13T16:32:08.948Z,0.88
2023-04-13T16:34:36.114Z,1.88
2023-04-13T16:37:03.410Z,0.93
2023-04-13T16:39:30.628Z,1.08
2023-04-13T16:41:57.893Z,0.77
2023-04-13T16:44:25.410Z,0.65
2023-04-13T16:46:52.944Z,1.85
2023-04-13T16:49:20.322Z,1.05
2023-04-13T16:51:48.544Z,4.28
2023-04-13T16:54:17.828Z,0.65
2023-04-13T16:56:45.220Z,0.90
2023-04-13T16:59:12.896Z,2.13
2023-04-13T17:01:40.119Z,0.82
2023-04-13T17:04:07.495Z,2.20
2023-04-13T17:06:38.153Z,1.38
2023-04-13T17:09:05.996Z,2.53
2023-04-13T17:11:33.364Z,2.88
2023-04-13T17:14:00.917Z,1.13
2023-04-13T17:16:29.395Z,1.58
2023-04-13T17:18:57.008Z,1.55
2023-04-13T17:21:24.555Z,1.10
2023-04-13T17:23:51.852Z,0.65
2023-04-13T17:26:19.270Z,1.17
2023-04-13T17:28:46.529Z,0.63
2023-04-13T17:31:14.398Z,0.68
2023-04-13T17:33:41.725Z,0.55
2023-04-13T17:36:08.903Z,0.57
2023-04-13T17:38:36.132Z,0.45
2023-04-13T17:41:03.656Z,1.10
2023-04-13T17:43:31.037Z,2.72
2023-04-13T17:45:58.254Z,2.72
2023-04-13T17:48:25.730Z,2.83
2023-04-13T17:50:52.890Z,3.20
2023-04-13T17:53:20.191Z,2.40
2023-04-13T17:55:47.468Z,1.92
2023-04-13T17:58:14.603Z,2.40
2023-04-13T18:00:41.888Z,1.65
2023-04-13T18:03:14.021Z,6.05
2023-04-13T18:05:44.496Z,1.55
2023-04-13T18:08:11.660Z,3.13
2023-04-13T18:10:38.902Z,3.53
2023-04-13T18:13:06.161Z,2.38
2023-04-13T18:15:33.312Z,4.05
2023-04-13T18:18:00.620Z,3.90
2023-04-13T18:20:27.896Z,4.90
2023-04-13T18:22:55.343Z,3.70
2023-04-13T18:25:22.512Z,4.32
2023-04-13T18:27:49.698Z,4.75
2023-04-13T18:30:17.037Z,5.35
2023-04-13T18:32:44.273Z,4.53
2023-04-13T18:35:12.987Z,3.72
2023-04-13T18:37:40.864Z,3.05
2023-04-13T18:40:09.795Z,2.90
2023-04-13T18:42:40.598Z,3.25
2023-04-13T18:45:08.875Z,2.33
2023-04-13T18:47:39.033Z,3.80
2023-04-13T18:50:07.561Z,2.35
2023-04-13T18:52:34.876Z,2.47
2023-04-13T18:55:02.151Z,1.92
2023-04-13T18:57:29.341Z,13.13
2023-04-13T18:59:57.265Z,2.60
2023-04-13T19:02:24.747Z,1.77
2023-04-13T19:04:52.187Z,2.03
2023-04-13T19:07:19.576Z,2.65
2023-04-13T19:09:46.964Z,2.13
2023-04-13T19:12:14.182Z,2.70
2023-04-13T19:14:41.363Z,3.53
2023-04-13T19:17:08.668Z,3.28
2023-04-13T19:19:36.064Z,4.15
2023-04-13T19:22:03.211Z,4.88
2023-04-13T19:24:30.548Z,4.10
2023-04-13T19:26:57.766Z,13.32
2023-04-13T19:29:29.919Z,10.30
2023-04-13T19:31:57.119Z,3.97
2023-04-13T19:34:24.282Z,7.65
2023-04-13T19:36:51.720Z,4.03
2023-04-13T19:39:18.875Z,5.88
2023-04-13T19:41:46.100Z,3.03
2023-04-13T19:44:15.885Z,3.78
2023-04-13T19:46:43.646Z,7.22
2023-04-13T19:49:10.856Z,4.97
2023-04-13T19:51:38.217Z,3.72
2023-04-13T19:54:06.084Z,3.50
2023-04-13T19:56:37.119Z,4.00
2023-04-13T19:59:05.863Z,3.67
2023-04-13T20:01:34.181Z,2.92
2023-04-13T20:04:04.425Z,4.13
2023-04-13T20:06:35.967Z,3.70
2023-04-13T20:09:14.426Z,3.45
2023-04-13T20:11:41.858Z,4.00
2023-04-13T20:14:11.359Z,3.88
2023-04-13T20:16:38.844Z,3.28
2023-04-13T20:19:06.880Z,4.50
2023-04-13T20:21:34.647Z,5.45
2023-04-13T20:24:03.162Z,3.53
2023-04-13T20:29:04.303Z,20.83
2023-04-13T20:31:34.840Z,9.00
2023-04-13T20:34:03.237Z,5.72
2023-04-13T20:36:31.489Z,4.57
2023-04-13T20:39:01.675Z,6.25
2023-04-13T20:41:32.263Z,6.43
2023-04-13T20:44:00.189Z,4.38
2023-04-13T20:46:34.158Z,4.63
2023-04-13T20:49:04.157Z,5.13
2023-04-13T20:51:33.370Z,6.03
2023-04-13T20:54:02.819Z,5.35
2023-04-13T20:56:30.281Z,5.45
2023-04-13T20:58:58.266Z,4.97
2023-04-13T21:01:25.769Z,6.05
2023-04-13T21:03:53.448Z,5.07
2023-04-13T21:06:22.565Z,6.35
2023-04-13T21:08:49.837Z,5.65
2023-04-13T21:11:16.976Z,4.63
2023-04-13T21:13:44.156Z,5.25
2023-04-13T21:16:12.016Z,5.00
2023-04-13T21:18:41.539Z,4.88
2023-04-13T21:21:09.627Z,5.30
2023-04-13T21:23:37.386Z,6.15
2023-04-13T21:26:05.294Z,8.07
2023-04-13T21:28:32.556Z,5.60
2023-04-13T21:30:59.698Z,5.00
2023-04-13T21:33:26.849Z,4.78
2023-04-13T21:35:54.027Z,6.03
2023-04-13T21:38:21.196Z,5.78
2023-04-13T21:40:48.533Z,5.35
2023-04-13T21:43:15.728Z,4.53
2023-04-13T21:45:43.360Z,9.25
2023-04-13T21:48:10.611Z,4.85
2023-04-13T21:50:37.760Z,5.57
2023-04-13T21:53:04.931Z,3.72
2023-04-13T21:55:32.154Z,5.15
2023-04-13T21:57:59.316Z,5.03
2023-04-13T22:00:26.796Z,4.97
2023-04-13T22:02:55.297Z,4.80
2023-04-13T22:05:22.648Z,4.88
2023-04-13T22:07:49.842Z,5.03
2023-04-13T22:10:17.149Z,3.95
2023-04-13T22:12:44.311Z,4.20
2023-04-13T22:15:11.799Z,3.20
2023-04-13T22:17:39.015Z,4.18
2023-04-13T22:20:07.413Z,3.25
2023-04-13T22:22:34.539Z,5.03
2023-04-13T22:25:01.742Z,3.20
2023-04-13T22:27:28.922Z,3.20
2023-04-13T22:29:56.031Z,4.85
2023-04-13T22:32:28.159Z,3.40
2023-04-13T22:34:56.089Z,4.65
2023-04-13T22:37:23.315Z,3.58
2023-04-13T22:39:50.545Z,3.45
2023-04-13T22:42:17.701Z,2.72
2023-04-13T22:44:44.821Z,3.00
2023-04-13T22:47:12.237Z,4.55
2023-04-13T22:49:39.439Z,3.15
2023-04-13T22:52:06.629Z,3.45
2023-04-13T22:54:33.880Z,4.18
2023-04-13T22:57:04.036Z,2.72
2023-04-13T22:59:32.514Z,3.53
2023-04-13T23:02:01.571Z,3.20
2023-04-13T23:04:29.097Z,3.22
2023-04-13T23:06:57.307Z,5.07
2023-04-13T23:09:24.972Z,4.10
2023-04-13T23:11:52.553Z,3.83
2023-04-13T23:14:20.243Z,5.00
2023-04-13T23:16:47.504Z,3.53
2023-04-13T23:19:18.537Z,2.47
2023-04-13T23:21:48.721Z,2.58
2023-04-13T23:24:15.889Z,2.15
2023-04-13T23:26:43.090Z,3.10
2023-04-13T23:29:10.529Z,4.25
2023-04-13T23:31:37.783Z,4.38
2023-04-13T23:34:05.041Z,3.30
2023-04-13T23:36:33.703Z,3.05
2023-04-13T23:41:28.134Z,2.85
2023-04-13T23:43:55.515Z,3.42
2023-04-13T23:46:23.534Z,3.58
2023-04-13T23:48:50.932Z,2.72
2023-04-13T23:51:18.109Z,3.55
2023-04-13T23:53:45.231Z,2.60
2023-04-13T23:56:12.370Z,3.08
2023-04-13T23:58:39.541Z,3.78
